createdAt,value
2023-04-15T00:01:53.610Z,5.43
2023-04-15T00:04:21.893Z,5.93
2023-04-15T00:06:55.370Z,5.80
2023-04-15T00:09:22.941Z,5.90
2023-04-15T00:11:51.478Z,6.60
2023-04-15T00:14:18.698Z,6.17
2023-04-15T00:16:46.421Z,6.47
2023-04-15T00:19:13.739Z,6.50
2023-04-15T00:21:41.348Z,6.65
2023-04-15T00:24:08.621Z,6.33
2023-04-15T00:26:35.898Z,6.37
2023-04-15T00:29:03.072Z,6.23
2023-04-15T00:31:30.827Z,6.37
2023-04-15T00:33:58.552Z,6.50
2023-04-15T00:36:26.342Z,6.47
2023-04-15T00:38:54.003Z,6.17
2023-04-15T00:41:21.306Z,5.93
2023-04-15T00:43:48.811Z,6.90
2023-04-15T00:46:17.009Z,6.33
2023-04-15T00:48:44.555Z,6.17
2023-04-15T00:51:11.760Z,6.60
2023-04-15T00:53:38.985Z,6.40
2023-04-15T00:56:06.686Z,6.67
2023-04-15T00:58:33.955Z,6.57
2023-04-15T01:01:01.173Z,6.67
2023-04-15T01:03:29.024Z,6.37
2023-04-15T01:05:58.589Z,6.13
2023-04-15T01:08:29.684Z,6.43
2023-04-15T01:11:03.710Z,6.87
2023-04-15T01:13:31.617Z,7.17
2023-04-15T01:15:59.161Z,6.53
2023-04-15T01:18:26.718Z,6.90
2023-04-15T01:20:53.911Z,6.90
2023-04-15T01:23:23.095Z,7.23
2023-04-15T01:25:50.741Z,7.23
2023-04-15T01:28:17.904Z,6.93
2023-04-15T01:30:45.118Z,6.90
2023-04-15T01:33:12.276Z,7.20
2023-04-15T01:35:39.827Z,6.60
2023-04-15T01:38:09.294Z,6.80
2023-04-15T01:40:36.551Z,7.57
2023-04-15T01:43:03.943Z,6.87
2023-04-15T01:45:31.203Z,6.47
2023-04-15T01:47:58.445Z,6.77
2023-04-15T01:50:27.102Z,8.00
2023-04-15T01:52:54.214Z,7.20
2023-04-15T01:55:21.701Z,6.80
2023-04-15T01:57:48.941Z,6.47
2023-04-15T02:00:17.532Z,7.03
2023-04-15T02:02:45.165Z,7.50
2023-04-15T02:05:12.414Z,6.67
2023-04-15T02:07:39.873Z,6.73
2023-04-15T02:10:07.373Z,7.37
2023-04-15T02:12:34.555Z,7.37
2023-04-15T02:15:02.028Z,7.10
2023-04-15T02:17:29.475Z,7.07
2023-04-15T02:19:57.158Z,6.80
2023-04-15T02:22:24.334Z,7.43
2023-04-15T02:24:51.523Z,7.20
2023-04-15T02:27:19.102Z,7.23
2023-04-15T02:29:46.884Z,7.10
2023-04-15T02:32:14.300Z,7.60
2023-04-15T02:34:42.830Z,7.37
2023-04-15T02:37:10.618Z,7.47
2023-04-15T02:39:38.020Z,7.63
2023-04-15T02:42:06.127Z,7.40
2023-04-15T02:44:34.304Z,7.50
2023-04-15T02:47:05.396Z,7.70
2023-04-15T02:49:33.829Z,7.73
2023-04-15T02:52:01.349Z,7.07
2023-04-15T02:54:28.873Z,7.60
2023-04-15T02:56:59.128Z,7.77
2023-04-15T02:59:29.928Z,7.47
2023-04-15T03:02:03.959Z,7.37
2023-04-15T03:04:42.067Z,8.00
2023-04-15T03:07:12.080Z,7.10
2023-04-15T03:09:47.327Z,8.07
2023-04-15T03:12:17.106Z,8.13
2023-04-15T03:14:44.536Z,8.17
2023-04-15T03:20:17.025Z,8.37
2023-04-15T03:22:44.649Z,8.23
2023-04-15T03:25:14.782Z,7.73
2023-04-15T03:27:42.379Z,8.97
2023-04-15T03:30:09.760Z,9.00
2023-04-15T03:32:39.726Z,9.67
2023-04-15T03:35:10.123Z,8.43
2023-04-15T03:37:37.306Z,8.53
2023-04-15T03:40:16.399Z,9.07
2023-04-15T04:02:29.100Z,9.00
2023-04-15T04:04:56.370Z,9.73
2023-04-15T04:07:28.153Z,9.87
2023-04-15T04:13:12.150Z,10.70
2023-04-15T04:15:59.006Z,10.33
2023-04-15T04:18:26.351Z,9.93
2023-04-15T04:20:53.630Z,10.40
2023-04-15T04:34:49.597Z,10.40
2023-04-15T04:37:20.122Z,10.63
2023-04-15T04:42:43.451Z,11.27
2023-04-15T04:45:40.384Z,11.53
2023-04-15T04:57:52.327Z,11.40
2023-04-15T05:00:22.679Z,11.67
2023-04-15T05:03:07.443Z,11.93
2023-04-15T05:05:39.648Z,11.40
2023-04-15T05:11:37.449Z,11.30
2023-04-15T05:18:10.927Z,12.40
2023-04-15T05:23:20.685Z,11.97
2023-04-15T05:25:47.897Z,11.87
2023-04-15T05:28:15.080Z,12.63
2023-04-15T05:30:42.491Z,12.70
2023-04-15T05:33:09.862Z,13.03
2023-04-15T05:35:37.254Z,12.43
2023-04-15T05:38:04.525Z,13.00
2023-04-15T05:40:32.103Z,11.87
2023-04-15T05:42:59.270Z,12.60
2023-04-15T05:45:27.300Z,12.43
2023-04-15T05:47:54.622Z,12.40
2023-04-15T05:50:22.018Z,12.63
2023-04-15T05:52:49.260Z,11.80
2023-04-15T05:55:16.580Z,12.60
2023-04-15T05:57:43.810Z,11.93
2023-04-15T06:00:11.461Z,12.80
2023-04-15T06:02:38.853Z,13.17
2023-04-15T06:05:09.882Z,12.00
2023-04-15T06:07:37.659Z,11.80
2023-04-15T06:10:05.864Z,12.70
2023-04-15T06:12:33.421Z,12.53
2023-04-15T06:15:00.929Z,13.03
2023-04-15T06:17:28.227Z,12.47
2023-04-15T06:19:55.862Z,13.10
2023-04-15T06:22:23.555Z,11.83
2023-04-15T06:24:51.575Z,12.80
2023-04-15T06:27:19.000Z,12.67
2023-04-15T06:29:46.348Z,12.50
2023-04-15T06:32:13.700Z,12.77
2023-04-15T06:34:40.891Z,12.97
2023-04-15T06:37:10.017Z,12.50
2023-04-15T06:39:37.706Z,12.10
2023-04-15T06:42:04.981Z,12.63
2023-04-15T06:44:33.883Z,11.73
2023-04-15T06:47:01.561Z,12.47
2023-04-15T06:49:28.815Z,12.17
2023-04-15T06:51:56.512Z,12.07
2023-04-15T06:54:23.832Z,11.63
2023-04-15T06:56:51.572Z,11.93
2023-04-15T06:59:19.201Z,11.80
2023-04-15T07:01:46.625Z,11.90
2023-04-15T07:04:14.164Z,11.53
2023-04-15T07:06:42.111Z,11.60
2023-04-15T07:09:09.917Z,11.07
2023-04-15T07:11:37.147Z,11.00
2023-04-15T07:14:04.325Z,10.93
2023-04-15T07:16:31.697Z,11.17
2023-04-15T07:18:59.092Z,11.07
2023-04-15T07:21:27.675Z,10.20
2023-04-15T07:23:54.870Z,9.73
2023-04-15T07:26:22.062Z,10.67
2023-04-15T07:28:49.394Z,11.53
2023-04-15T07:31:17.447Z,10.13
2023-04-15T07:33:44.805Z,10.47
2023-04-15T07:36:11.989Z,11.20
2023-04-15T07:38:39.182Z,10.83
2023-04-15T07:41:06.342Z,10.70
2023-04-15T07:43:33.790Z,10.30
2023-04-15T07:46:01.438Z,10.60
2023-04-15T07:48:28.641Z,10.67
2023-04-15T07:50:55.859Z,9.83
2023-04-15T07:53:23.103Z,10.37
2023-04-15T07:55:50.780Z,10.57
2023-04-15T07:58:18.605Z,9.97
2023-04-15T08:00:46.070Z,10.43
2023-04-15T08:03:13.500Z,10.83
2023-04-15T08:05:41.027Z,9.93
2023-04-15T08:08:08.862Z,10.77
2023-04-15T08:10:36.150Z,9.57
2023-04-15T08:13:03.508Z,10.17
2023-04-15T08:15:32.916Z,9.80
2023-04-15T08:18:02.937Z,10.40
2023-04-15T08:20:30.225Z,10.00
2023-04-15T08:22:57.434Z,10.67
2023-04-15T08:25:24.635Z,10.23
2023-04-15T08:27:52.379Z,9.53
2023-04-15T08:30:19.658Z,9.83
2023-04-15T08:32:47.553Z,9.50
2023-04-15T08:35:15.478Z,9.47
2023-04-15T08:37:42.816Z,10.20
2023-04-15T08:40:10.761Z,9.80
2023-04-15T08:42:41.099Z,9.43
2023-04-15T08:45:11.414Z,9.30
2023-04-15T08:47:42.473Z,9.23
2023-04-15T08:50:11.134Z,9.57
2023-04-15T08:52:40.556Z,8.63
2023-04-15T08:55:08.707Z,9.17
2023-04-15T08:57:36.663Z,9.70
2023-04-15T09:00:05.706Z,9.57
2023-04-15T09:02:33.310Z,9.57
2023-04-15T09:05:00.929Z,8.73
2023-04-15T09:07:28.159Z,9.00
2023-04-15T09:09:55.470Z,8.90
2023-04-15T09:12:22.716Z,9.03
2023-04-15T09:14:50.000Z,8.90
2023-04-15T09:17:19.732Z,9.53
2023-04-15T09:19:47.060Z,8.90
2023-04-15T09:22:14.804Z,9.67
2023-04-15T09:24:43.385Z,9.00
2023-04-15T09:27:11.304Z,9.67
2023-04-15T09:29:38.579Z,9.70
2023-04-15T09:32:16.030Z,9.33
2023-04-15T09:34:43.583Z,9.20
2023-04-15T09:37:11.321Z,9.17
2023-04-15T09:39:52.107Z,9.73
2023-04-15T09:42:26.923Z,9.87
2023-04-15T09:44:54.311Z,8.97
2023-04-15T09:47:28.325Z,8.80
2023-04-15T09:49:59.648Z,9.80
2023-04-15T09:52:27.307Z,9.50
2023-04-15T09:54:56.544Z,9.30
2023-04-15T09:57:24.467Z,9.30
2023-04-15T09:59:52.192Z,10.07
2023-04-15T10:02:23.295Z,6.00
2023-04-15T10:04:51.018Z,5.03
2023-04-15T10:07:20.656Z,5.17
2023-04-15T10:09:49.251Z,4.93
2023-04-15T10:12:20.771Z,5.00
2023-04-15T10:14:57.427Z,4.77
2023-04-15T10:17:28.140Z,4.30
2023-04-15T10:19:56.950Z,4.63
2023-04-15T10:22:24.262Z,6.33
2023-04-15T10:24:52.170Z,6.97
2023-04-15T10:27:19.876Z,7.00
2023-04-15T10:29:47.756Z,5.67
2023-04-15T10:32:15.956Z,4.57
2023-04-15T10:34:43.768Z,4.73
2023-04-15T10:38:12.174Z,7.00
2023-04-15T10:43:54.592Z,8.90
2023-04-15T10:46:40.496Z,8.43
2023-04-15T10:49:18.095Z,8.70
2023-04-15T10:51:46.618Z,7.67
2023-04-15T10:54:25.964Z,7.93
2023-04-15T10:57:07.552Z,8.13
2023-04-15T10:59:38.579Z,8.03
2023-04-15T11:05:43.943Z,6.27
2023-04-15T11:08:11.634Z,5.20
2023-04-15T11:10:38.884Z,4.33
2023-04-15T11:13:27.360Z,3.80
2023-04-15T11:15:57.872Z,3.13
2023-04-15T11:18:31.288Z,3.30
2023-04-15T11:20:59.763Z,3.00
2023-04-15T11:23:33.307Z,3.13
2023-04-15T11:26:01.424Z,2.88
2023-04-15T11:28:31.419Z,3.33
2023-04-15T11:30:59.250Z,3.13
2023-04-15T11:33:27.114Z,3.80
2023-04-15T11:35:55.440Z,4.20
2023-04-15T11:38:22.949Z,3.07
2023-04-15T11:40:52.477Z,3.17
2023-04-15T11:43:23.370Z,3.00
2023-04-15T11:45:53.801Z,3.03
2023-04-15T11:48:22.562Z,3.33
2023-04-15T11:51:00.264Z,3.67
2023-04-15T11:53:38.441Z,3.30
2023-04-15T11:56:06.266Z,3.60
2023-04-15T11:58:35.698Z,3.90
2023-04-15T12:01:03.382Z,3.53
2023-04-15T12:03:32.113Z,3.60
2023-04-15T12:06:19.546Z,4.07
2023-04-15T12:08:53.161Z,4.68
2023-04-15T12:11:36.943Z,4.47
2023-04-15T12:14:04.288Z,5.27
2023-04-15T12:16:31.761Z,4.00
2023-04-15T12:18:59.680Z,7.27
2023-04-15T12:21:29.233Z,5.93
2023-04-15T12:23:57.367Z,3.85
2023-04-15T12:26:28.906Z,6.30
2023-04-15T12:28:57.418Z,4.23
2023-04-15T12:31:25.055Z,4.07
2023-04-15T12:33:52.259Z,3.70
2023-04-15T12:36:19.499Z,2.83
2023-04-15T12:38:46.694Z,3.13
2023-04-15T12:41:13.979Z,5.05
2023-04-15T12:43:42.125Z,4.93
2023-04-15T12:46:10.183Z,4.43
2023-04-15T12:48:37.421Z,4.53
2023-04-15T12:51:05.731Z,4.10
2023-04-15T12:53:33.100Z,3.80
2023-04-15T12:56:00.631Z,3.37
2023-04-15T12:58:27.917Z,3.25
2023-04-15T13:00:55.300Z,3.22
2023-04-15T13:03:22.595Z,4.13
2023-04-15T13:05:49.856Z,4.10
2023-04-15T13:08:17.085Z,3.10
2023-04-15T13:10:44.300Z,3.67
2023-04-15T13:13:12.119Z,3.90
2023-04-15T13:15:39.752Z,4.43
2023-04-15T13:18:07.823Z,4.13
2023-04-15T13:20:34.982Z,4.63
2023-04-15T13:23:02.570Z,4.73
2023-04-15T13:25:29.843Z,4.18
2023-04-15T13:27:57.964Z,4.30
2023-04-15T13:30:25.110Z,4.78
2023-04-15T13:32:53.921Z,5.10
2023-04-15T13:35:21.750Z,4.50
2023-04-15T13:37:49.201Z,4.80
2023-04-15T13:40:16.586Z,4.47
2023-04-15T13:42:44.013Z,4.30
2023-04-15T13:45:11.684Z,4.43
2023-04-15T13:47:38.959Z,5.13
2023-04-15T13:50:06.830Z,4.32
2023-04-15T13:52:34.033Z,5.70
2023-04-15T13:55:07.215Z,7.88
2023-04-15T13:57:47.149Z,8.45
2023-04-15T14:00:15.944Z,7.60
2023-04-15T14:02:46.528Z,6.40
2023-04-15T14:05:14.012Z,5.43
2023-04-15T14:07:41.482Z,6.50
2023-04-15T14:10:08.966Z,6.55
2023-04-15T14:12:36.335Z,6.32
2023-04-15T14:15:03.683Z,6.90
2023-04-15T14:17:31.264Z,6.68
2023-04-15T14:19:58.569Z,6.75
2023-04-15T14:22:25.991Z,6.05
2023-04-15T14:24:54.724Z,6.45
2023-04-15T14:27:22.092Z,6.38
2023-04-15T14:29:49.484Z,7.20
2023-04-15T14:34:44.242Z,6.72
2023-04-15T14:37:11.680Z,7.50
2023-04-15T14:39:39.799Z,7.50
2023-04-15T14:42:07.341Z,7.57
2023-04-15T14:44:37.989Z,7.70
2023-04-15T14:47:05.462Z,9.05
2023-04-15T14:49:33.009Z,8.10
2023-04-15T14:52:00.384Z,9.38
2023-04-15T14:54:27.860Z,9.30
2023-04-15T14:56:56.030Z,9.70
2023-04-15T14:59:23.561Z,11.05
2023-04-15T15:01:51.014Z,10.93
2023-04-15T15:04:18.670Z,9.32
2023-04-15T15:06:47.967Z,10.18
2023-04-15T15:09:16.425Z,8.77
2023-04-15T15:11:43.680Z,10.00
2023-04-15T15:14:11.175Z,8.75
2023-04-15T15:16:38.894Z,8.40
2023-04-15T15:19:06.395Z,8.52
2023-04-15T15:21:34.289Z,8.77
2023-04-15T15:24:02.058Z,9.57
2023-04-15T15:26:29.819Z,9.02
2023-04-15T15:28:57.050Z,8.50
2023-04-15T15:31:24.396Z,8.88
2023-04-15T15:33:52.968Z,9.15
2023-04-15T15:36:20.152Z,9.55
2023-04-15T15:38:47.582Z,9.13
2023-04-15T15:41:15.721Z,11.18
2023-04-15T15:43:42.926Z,9.85
2023-04-15T15:46:10.561Z,10.20
2023-04-15T15:48:38.042Z,9.55
2023-04-15T15:51:05.453Z,8.07
2023-04-15T15:53:32.600Z,8.45
2023-04-15T15:55:59.931Z,8.73
2023-04-15T15:58:27.189Z,9.10
2023-04-15T16:00:54.539Z,8.83
2023-04-15T16:03:21.937Z,8.52
2023-04-15T16:05:52.510Z,8.48
2023-04-15T16:08:20.198Z,8.68
2023-04-15T16:10:47.432Z,8.35
2023-04-15T16:13:14.727Z,7.85
2023-04-15T16:15:42.021Z,7.10
2023-04-15T16:18:09.171Z,7.80
2023-04-15T16:20:36.445Z,7.43
2023-04-15T16:23:07.831Z,8.27
2023-04-15T16:25:35.579Z,8.27
2023-04-15T16:28:11.549Z,8.27
2023-04-15T16:30:47.072Z,7.65
2023-04-15T16:33:14.468Z,7.80
2023-04-15T16:35:41.653Z,7.95
2023-04-15T16:38:09.042Z,8.95
2023-04-15T16:40:37.722Z,8.20
2023-04-15T16:43:07.524Z,8.38
2023-04-15T16:45:34.888Z,7.68
2023-04-15T16:48:02.259Z,8.90
2023-04-15T16:50:29.587Z,8.90
2023-04-15T16:52:56.832Z,9.15
2023-04-15T16:55:24.001Z,9.10
2023-04-15T16:58:01.524Z,10.68
2023-04-15T17:00:30.492Z,9.07
2023-04-15T17:02:57.984Z,10.10
2023-04-15T17:05:27.622Z,11.02
2023-04-15T17:07:55.267Z,10.37
2023-04-15T17:10:22.513Z,9.87
2023-04-15T17:12:52.072Z,9.48
2023-04-15T17:15:19.965Z,9.50
2023-04-15T17:17:47.269Z,10.03
2023-04-15T17:20:15.021Z,9.87
2023-04-15T17:22:42.320Z,10.47
2023-04-15T17:25:09.659Z,9.67
2023-04-15T17:27:38.652Z,9.45
2023-04-15T17:30:06.665Z,9.57
2023-04-15T17:32:34.878Z,10.00
2023-04-15T17:35:02.908Z,9.45
2023-04-15T17:37:30.250Z,9.30
2023-04-15T17:39:57.431Z,9.50
2023-04-15T17:42:24.748Z,9.10
2023-04-15T17:44:51.976Z,9.43
2023-04-15T17:47:19.190Z,9.57
2023-04-15T17:49:47.697Z,9.80
2023-04-15T17:52:15.017Z,9.60
2023-04-15T17:54:42.353Z,10.00
2023-04-15T17:57:09.915Z,9.40
2023-04-15T17:59:37.175Z,9.93
2023-04-15T18:02:04.514Z,10.20
2023-04-15T18:04:31.836Z,9.77
2023-04-15T18:06:59.482Z,10.30
2023-04-15T18:09:27.598Z,14.17
2023-04-15T18:11:55.089Z,11.53
2023-04-15T18:14:33.727Z,10.40
2023-04-15T18:17:01.983Z,9.03
2023-04-15T18:19:29.194Z,10.33
2023-04-15T18:21:56.424Z,11.50
2023-04-15T18:24:23.872Z,10.83
2023-04-15T18:26:51.284Z,10.33
2023-04-15T18:29:18.656Z,10.10
2023-04-15T18:31:46.183Z,10.23
2023-04-15T18:34:13.489Z,11.73
2023-04-15T18:36:40.958Z,15.97
2023-04-15T18:39:08.500Z,13.93
2023-04-15T18:41:35.898Z,13.80
2023-04-15T18:44:03.140Z,12.17
2023-04-15T18:46:30.386Z,10.50
2023-04-15T18:48:57.578Z,9.77
2023-04-15T18:51:24.906Z,9.63
2023-04-15T18:53:52.108Z,9.33
2023-04-15T18:56:19.287Z,9.37
2023-04-15T18:59:26.088Z,9.57
2023-04-15T19:01:33.666Z,8.37
2023-04-15T19:04:01.711Z,8.70
2023-04-15T19:06:29.408Z,9.17
2023-04-15T19:08:58.539Z,8.03
2023-04-15T19:11:26.300Z,9.07
2023-04-15T19:13:53.632Z,9.67
2023-04-15T19:16:21.185Z,9.23
2023-04-15T19:18:48.425Z,9.70
2023-04-15T19:21:16.227Z,9.13
2023-04-15T19:23:43.998Z,8.90
2023-04-15T19:26:14.838Z,9.93
2023-04-15T19:28:42.083Z,10.07
2023-04-15T19:31:09.529Z,10.27
2023-04-15T19:33:36.858Z,10.10
2023-04-15T19:36:05.397Z,10.33
2023-04-15T19:38:32.999Z,10.73
2023-04-15T19:41:00.483Z,10.40
2023-04-15T19:43:27.691Z,11.17
2023-04-15T19:45:55.113Z,12.67
2023-04-15T19:48:23.131Z,13.07
2023-04-15T19:50:50.548Z,12.40
2023-04-15T19:53:17.849Z,14.27
2023-04-15T19:55:45.851Z,21.83
2023-04-15T19:58:13.064Z,21.97
2023-04-15T20:00:40.278Z,22.73
2023-04-15T20:03:07.791Z,26.93
2023-04-15T20:05:35.963Z,27.43
2023-04-15T20:08:03.219Z,24.07
2023-04-15T20:10:31.857Z,22.07
2023-04-15T20:12:59.285Z,23.23
2023-04-15T20:15:27.234Z,29.30
2023-04-15T20:17:54.570Z,28.97
2023-04-15T20:20:22.057Z,31.73
2023-04-15T20:22:49.299Z,28.43
2023-04-15T20:25:16.666Z,25.20
2023-04-15T20:27:45.539Z,23.93
2023-04-15T20:30:12.773Z,24.73
2023-04-15T20:32:40.053Z,34.57
2023-04-15T20:35:07.469Z,40.93
2023-04-15T20:37:34.900Z,41.47
2023-04-15T20:40:02.576Z,33.93
2023-04-15T20:42:34.361Z,37.43
2023-04-15T20:45:02.177Z,38.43
2023-04-15T20:47:29.708Z,35.80
2023-04-15T20:49:57.355Z,35.80
2023-04-15T20:52:24.513Z,33.77
2023-04-15T20:54:51.665Z,36.83
2023-04-15T20:57:20.454Z,36.97
2023-04-15T20:59:47.913Z,35.10
2023-04-15T21:02:15.205Z,39.47
2023-04-15T21:04:42.578Z,35.87
2023-04-15T21:07:10.416Z,37.43
2023-04-15T21:09:41.296Z,39.90
2023-04-15T21:12:08.655Z,38.83
2023-04-15T21:14:36.970Z,38.13
2023-04-15T21:17:11.099Z,36.73
2023-04-15T21:19:39.019Z,36.90
2023-04-15T21:22:06.216Z,37.00
2023-04-15T21:24:33.439Z,36.00
2023-04-15T21:27:02.098Z,35.60
2023-04-15T21:29:29.383Z,35.87
2023-04-15T21:31:56.806Z,35.87
2023-04-15T21:34:24.303Z,37.27
2023-04-15T21:36:51.506Z,38.27
2023-04-15T21:39:18.683Z,40.80
2023-04-15T21:41:46.032Z,40.90
2023-04-15T21:44:14.868Z,42.03
2023-04-15T21:46:45.766Z,42.17
2023-04-15T21:49:13.554Z,44.33
2023-04-15T21:51:40.837Z,43.93
2023-04-15T21:54:08.298Z,45.67
2023-04-15T21:56:36.781Z,46.07
2023-04-15T21:59:04.264Z,50.90
2023-04-15T22:01:31.844Z,59.83
2023-04-15T22:03:59.250Z,66.93
2023-04-15T22:06:27.150Z,66.53
2023-04-15T22:08:57.470Z,66.67
2023-04-15T22:11:28.698Z,72.77
2023-04-15T22:13:57.277Z,76.53
2023-04-15T22:16:26.365Z,74.10
2023-04-15T22:18:53.958Z,75.03
2023-04-15T22:21:21.220Z,71.40
2023-04-15T22:23:48.792Z,74.47
2023-04-15T22:26:15.967Z,70.67
2023-04-15T22:28:43.247Z,68.20
2023-04-15T22:31:10.776Z,65.13
2023-04-15T22:33:38.825Z,61.83
2023-04-15T22:36:06.455Z,62.67
2023-04-15T22:38:33.666Z,65.87
2023-04-15T22:41:01.224Z,61.43
2023-04-15T22:43:28.496Z,66.97
2023-04-15T22:45:56.664Z,63.33
2023-04-15T22:48:23.980Z,61.80
2023-04-15T22:50:51.296Z,62.10
2023-04-15T22:53:18.620Z,68.07
2023-04-15T22:55:46.947Z,62.30
2023-04-15T22:58:14.464Z,59.80
2023-04-15T23:00:41.812Z,63.67
2023-04-15T23:03:09.344Z,67.20
2023-04-15T23:05:37.007Z,72.87
2023-04-15T23:08:04.333Z,71.70
2023-04-15T23:10:31.852Z,66.13
2023-04-15T23:12:59.168Z,64.20
2023-04-15T23:15:26.817Z,60.73
2023-04-15T23:17:54.616Z,64.73
2023-04-15T23:20:21.872Z,67.67
2023-04-15T23:22:49.138Z,89.73
2023-04-15T23:25:16.597Z,95.20
2023-04-15T23:27:43.936Z,96.00
2023-04-15T23:30:11.275Z,90.97
2023-04-15T23:32:38.708Z,89.23
2023-04-15T23:35:06.701Z,75.03
2023-04-15T23:37:34.002Z,71.23
2023-04-15T23:40:01.402Z,69.53
2023-04-15T23:42:28.753Z,62.03
2023-04-15T23:44:56.402Z,65.87
2023-04-15T23:47:24.008Z,63.10
2023-04-15T23:49:53.975Z,60.90
2023-04-15T23:52:21.160Z,60.97
2023-04-15T23:54:48.508Z,58.87
2023-04-15T23:57:15.794Z,57.97
2023-04-15T23:59:43.062Z,57.87
